createdAt,value
2016-12-06T00:00:50.291Z,19.53
2016-12-06T00:01:50.268Z,19.42
2016-12-06T00:02:49.932Z,19.52
2016-12-06T00:03:50.238Z,19.55
2016-12-06T00:04:50.106Z,19.4
2016-12-06T00:05:50.247Z,19.45
2016-12-06T00:06:49.868Z,19.43
2016-12-06T00:07:49.855Z,19.49
2016-12-06T00:08:50.151Z,19.38
2016-12-06T00:09:50.148Z,19.43
2016-12-06T00:10:49.481Z,19.35
2016-12-06T00:11:50.097Z,19.3
2016-12-06T00:12:50.078Z,19.35
2016-12-06T00:13:50.069Z,19.35
2016-12-06T00:14:49.734Z,19.34
2016-12-06T00:15:49.726Z,19.34
2016-12-06T00:16:49.703Z,19.31
2016-12-06T00:17:49.684Z,19.27
2016-12-06T00:18:49.989Z,19.32
2016-12-06T00:19:49.969Z,19.34
2016-12-06T00:20:49.982Z,19.28
2016-12-06T00:21:49.937Z,19.28
2016-12-06T00:22:49.926Z,19.27
2016-12-06T00:23:49.909Z,19.23
2016-12-06T00:24:49.884Z,19.24
2016-12-06T00:25:49.876Z,19.21
2016-12-06T00:26:49.851Z,19.21
2016-12-06T00:27:49.837Z,19.16
2016-12-06T00:28:49.820Z,19.28
2016-12-06T00:29:49.489Z,19.32
2016-12-06T00:30:49.788Z,19.2
2016-12-06T00:31:49.453Z,19.16
2016-12-06T00:32:49.758Z,19.2
2016-12-06T00:33:49.422Z,19.23
2016-12-06T00:34:49.401Z,19.28
2016-12-06T00:35:49.385Z,19.16
2016-12-06T00:36:49.692Z,19.21
2016-12-06T00:37:49.393Z,19.13
2016-12-06T00:38:49.336Z,19.2
2016-12-06T00:39:49.633Z,19.13
2016-12-06T00:40:49.300Z,19.16
2016-12-06T00:41:49.602Z,19.17
2016-12-06T00:42:49.585Z,19.24
2016-12-06T00:43:49.620Z,19.23
2016-12-06T00:44:49.555Z,19.13
2016-12-06T00:45:49.535Z,19.13
2016-12-06T00:46:49.206Z,19.15
2016-12-06T00:47:49.509Z,19.13
2016-12-06T00:48:49.173Z,19.21
2016-12-06T00:49:49.471Z,19.16
2016-12-06T00:50:49.456Z,19.15
2016-12-06T00:51:49.127Z,19.16
2016-12-06T00:52:49.100Z,19.2
2016-12-06T00:53:49.398Z,19.15
2016-12-06T00:54:49.393Z,19.13
2016-12-06T00:55:49.367Z,19.09
2016-12-06T00:56:49.608Z,19.05
2016-12-06T00:57:49.015Z,19.06
2016-12-06T00:58:49.313Z,19.12
2016-12-06T00:59:49.212Z,19.07
2016-12-06T01:00:48.971Z,19.1
2016-12-06T01:01:49.267Z,19.1
2016-12-06T01:02:49.242Z,19.15
2016-12-06T01:03:48.920Z,19.12
2016-12-06T01:04:48.893Z,19.01
2016-12-06T01:05:48.876Z,19.02
2016-12-06T01:06:48.860Z,19.12
2016-12-06T01:07:48.843Z,19.05
2016-12-06T01:08:48.828Z,19.01
2016-12-06T01:09:49.131Z,19.02
2016-12-06T01:10:48.800Z,19.02
2016-12-06T01:11:48.834Z,18.97
2016-12-06T01:12:49.129Z,19.01
2016-12-06T01:13:49.068Z,18.93
2016-12-06T01:14:49.065Z,19.06
2016-12-06T01:15:49.029Z,19.01
2016-12-06T01:16:49.010Z,19.01
2016-12-06T01:17:48.993Z,18.94
2016-12-06T01:18:48.662Z,18.93
2016-12-06T01:19:48.962Z,19.01
2016-12-06T01:20:48.942Z,18.97
2016-12-06T01:21:48.926Z,19.01
2016-12-06T01:22:48.907Z,18.97
2016-12-06T01:23:48.886Z,18.93
2016-12-06T01:24:48.918Z,18.97
2016-12-06T01:25:48.863Z,18.96
2016-12-06T01:26:48.838Z,18.97
2016-12-06T01:27:48.513Z,18.94
2016-12-06T01:28:49.014Z,18.84
2016-12-06T01:29:48.797Z,18.91
2016-12-06T01:30:48.773Z,18.84
2016-12-06T01:31:48.442Z,18.83
2016-12-06T01:32:48.737Z,18.79
2016-12-06T01:33:48.733Z,18.82
2016-12-06T01:34:48.710Z,18.79
2016-12-06T01:35:48.689Z,18.75
2016-12-06T01:36:48.354Z,18.79
2016-12-06T01:37:48.654Z,18.74
2016-12-06T01:38:48.321Z,18.74
2016-12-06T01:39:48.314Z,18.74
2016-12-06T01:40:48.607Z,18.78
2016-12-06T01:41:48.590Z,18.72
2016-12-06T01:42:47.936Z,18.78
2016-12-06T01:43:48.557Z,18.69
2016-12-06T01:44:47.902Z,18.74
2016-12-06T01:45:48.517Z,18.78
2016-12-06T01:46:48.183Z,18.74
2016-12-06T01:47:48.170Z,18.71
2016-12-06T01:48:48.463Z,18.68
2016-12-06T01:49:49.079Z,18.62
2016-12-06T01:50:48.438Z,18.64
2016-12-06T01:51:48.419Z,18.62
2016-12-06T01:52:48.090Z,18.66
2016-12-06T01:53:48.383Z,18.57
2016-12-06T01:54:48.363Z,18.64
2016-12-06T01:55:48.352Z,18.56
2016-12-06T01:56:48.329Z,18.65
2016-12-06T01:57:47.997Z,18.65
2016-12-06T01:58:48.295Z,18.59
2016-12-06T01:59:48.279Z,18.66
2016-12-06T02:00:47.968Z,18.64
2016-12-06T02:01:48.253Z,18.66
2016-12-06T02:02:47.916Z,18.59
2016-12-06T02:03:48.211Z,18.62
2016-12-06T02:04:48.619Z,18.66
2016-12-06T02:05:48.178Z,18.64
2016-12-06T02:06:48.079Z,18.56
2016-12-06T02:07:48.147Z,18.6
2016-12-06T02:08:48.354Z,18.65
2016-12-06T02:09:48.130Z,18.6
2016-12-06T02:10:47.775Z,18.64
2016-12-06T02:11:47.765Z,18.57
2016-12-06T02:12:48.060Z,18.53
2016-12-06T02:13:47.729Z,18.64
2016-12-06T02:14:48.024Z,18.51
2016-12-06T02:15:48.014Z,18.53
2016-12-06T02:16:47.671Z,18.5
2016-12-06T02:17:47.974Z,18.53
2016-12-06T02:18:47.957Z,18.53
2016-12-06T02:19:47.626Z,18.53
2016-12-06T02:20:47.610Z,18.57
2016-12-06T02:21:47.903Z,18.56
2016-12-06T02:22:47.886Z,18.47
2016-12-06T02:23:47.555Z,18.53
2016-12-06T02:24:47.860Z,18.53
2016-12-06T02:25:47.839Z,18.51
2016-12-06T02:26:47.821Z,18.54
2016-12-06T02:27:47.484Z,18.57
2016-12-06T02:28:47.785Z,18.59
2016-12-06T02:29:47.456Z,18.5
2016-12-06T02:30:47.433Z,18.49
2016-12-06T02:31:47.742Z,18.54
2016-12-06T02:32:47.719Z,18.5
2016-12-06T02:33:47.701Z,18.47
2016-12-06T02:34:47.686Z,18.5
2016-12-06T02:35:47.668Z,18.51
2016-12-06T02:36:47.645Z,18.46
2016-12-06T02:37:47.368Z,18.51
2016-12-06T02:38:47.615Z,18.41
2016-12-06T02:39:47.292Z,18.42
2016-12-06T02:40:46.968Z,18.47
2016-12-06T02:41:47.567Z,18.41
2016-12-06T02:42:47.546Z,18.39
2016-12-06T02:43:47.527Z,18.36
2016-12-06T02:44:47.512Z,18.41
2016-12-06T02:45:47.492Z,18.39
2016-12-06T02:46:47.195Z,18.47
2016-12-06T02:47:47.452Z,18.41
2016-12-06T02:48:47.181Z,18.44
2016-12-06T02:49:47.424Z,18.5
2016-12-06T02:50:47.406Z,18.39
2016-12-06T02:51:47.395Z,18.38
2016-12-06T02:52:47.054Z,18.34
2016-12-06T02:53:47.357Z,18.44
2016-12-06T02:54:47.020Z,18.36
2016-12-06T02:55:47.318Z,18.34
2016-12-06T02:56:47.298Z,18.46
2016-12-06T02:57:46.978Z,18.39
2016-12-06T02:58:46.955Z,18.35
2016-12-06T02:59:46.943Z,18.35
2016-12-06T03:00:47.234Z,18.34
2016-12-06T03:01:46.897Z,18.38
2016-12-06T03:02:46.930Z,18.38
2016-12-06T03:03:47.187Z,18.32
2016-12-06T03:04:47.164Z,18.35
2016-12-06T03:05:46.856Z,18.28
2016-12-06T03:06:47.129Z,18.35
2016-12-06T03:07:47.116Z,18.32
2016-12-06T03:08:46.782Z,18.32
2016-12-06T03:09:47.078Z,18.29
2016-12-06T03:10:47.062Z,18.31
2016-12-06T03:11:47.069Z,18.31
2016-12-06T03:12:47.032Z,18.31
2016-12-06T03:13:46.697Z,18.28
2016-12-06T03:14:46.677Z,18.36
2016-12-06T03:15:46.669Z,18.28
2016-12-06T03:16:46.980Z,18.28
2016-12-06T03:17:46.940Z,18.31
2016-12-06T03:18:46.919Z,18.34
2016-12-06T03:19:46.902Z,18.31
2016-12-06T03:20:46.576Z,18.23
2016-12-06T03:21:46.875Z,18.36
2016-12-06T03:22:46.858Z,18.32
2016-12-06T03:23:46.833Z,18.29
2016-12-06T03:24:46.820Z,18.25
2016-12-06T03:25:46.800Z,18.23
2016-12-06T03:26:46.790Z,18.26
2016-12-06T03:27:46.984Z,18.23
2016-12-06T03:28:46.431Z,18.23
2016-12-06T03:29:46.936Z,18.28
2016-12-06T03:30:46.716Z,18.26
2016-12-06T03:31:46.379Z,18.29
2016-12-06T03:32:46.680Z,18.25
2016-12-06T03:33:46.665Z,18.25
2016-12-06T03:34:46.640Z,18.23
2016-12-06T03:35:46.313Z,18.25
2016-12-06T03:36:46.652Z,18.23
2016-12-06T03:37:46.280Z,18.17
2016-12-06T03:38:46.263Z,18.25
2016-12-06T03:39:46.564Z,18.2
2016-12-06T03:40:46.535Z,18.21
2016-12-06T03:41:46.523Z,18.21
2016-12-06T03:42:46.727Z,18.2
2016-12-06T03:43:46.181Z,18.26
2016-12-06T03:44:46.472Z,18.25
2016-12-06T03:45:46.450Z,18.25
2016-12-06T03:46:46.439Z,18.21
2016-12-06T03:47:46.446Z,18.21
2016-12-06T03:48:46.414Z,18.14
2016-12-06T03:49:46.387Z,18.16
2016-12-06T03:50:46.054Z,18.19
2016-12-06T03:51:46.041Z,18.21
2016-12-06T03:52:46.014Z,18.17
2016-12-06T03:53:46.325Z,18.2
2016-12-06T03:54:45.977Z,18.17
2016-12-06T03:55:46.284Z,18.11
2016-12-06T03:56:46.269Z,18.13
2016-12-06T03:57:46.247Z,18.14
2016-12-06T03:58:46.228Z,18.13
2016-12-06T03:59:46.211Z,18.11
2016-12-06T04:00:45.878Z,18.07
2016-12-06T04:01:46.175Z,18.14
2016-12-06T04:02:46.161Z,18.14
2016-12-06T04:03:46.377Z,18.13
2016-12-06T04:04:46.117Z,18.16
2016-12-06T04:05:46.106Z,18.07
2016-12-06T04:06:46.089Z,18.09
2016-12-06T04:07:45.753Z,18.05
2016-12-06T04:08:45.738Z,18.05
2016-12-06T04:09:46.081Z,18.09
2016-12-06T04:10:46.020Z,18.09
2016-12-06T04:11:45.691Z,18.05
2016-12-06T04:12:45.991Z,18.01
2016-12-06T04:13:45.964Z,18.1
2016-12-06T04:14:45.637Z,18.04
2016-12-06T04:15:45.611Z,18.1
2016-12-06T04:16:45.912Z,18.07
2016-12-06T04:17:45.899Z,18.01
2016-12-06T04:18:45.878Z,18.07
2016-12-06T04:19:46.069Z,18.07
2016-12-06T04:20:45.525Z,18.01
2016-12-06T04:21:45.831Z,18.09
2016-12-06T04:22:45.709Z,17.99
2016-12-06T04:23:45.474Z,17.96
2016-12-06T04:24:45.813Z,18.09
2016-12-06T04:25:45.753Z,18.04
2016-12-06T04:26:45.964Z,18.11
2016-12-06T04:27:45.731Z,18.04
2016-12-06T04:28:45.390Z,18.04
2016-12-06T04:29:45.691Z,18.02
2016-12-06T04:30:45.667Z,18.01
2016-12-06T04:31:45.654Z,18.04
2016-12-06T04:32:45.324Z,17.98
2016-12-06T04:33:45.624Z,17.99
2016-12-06T04:34:45.603Z,17.96
2016-12-06T04:35:45.267Z,17.99
2016-12-06T04:37:00.126Z,17.99
2016-12-06T04:37:44.916Z,17.94
2016-12-06T04:38:45.532Z,17.92
2016-12-06T04:39:45.512Z,17.98
2016-12-06T04:40:45.174Z,17.91
2016-12-06T04:41:45.492Z,17.94
2016-12-06T04:42:45.461Z,17.96
2016-12-06T04:43:45.444Z,18.02
2016-12-06T04:44:45.423Z,17.96
2016-12-06T04:45:45.407Z,18.01
2016-12-06T04:46:45.388Z,17.98
2016-12-06T04:47:45.372Z,18.1
2016-12-06T04:48:45.362Z,18.04
2016-12-06T04:49:45.388Z,18.05
2016-12-06T04:50:45.005Z,18.17
2016-12-06T04:51:45.302Z,18.04
2016-12-06T04:52:45.280Z,18.05
2016-12-06T04:53:44.981Z,18.09
2016-12-06T04:54:45.178Z,18.05
2016-12-06T04:55:45.235Z,18.11
2016-12-06T04:56:45.216Z,18.13
2016-12-06T04:57:45.201Z,18.16
2016-12-06T04:58:45.188Z,18.16
2016-12-06T04:59:45.162Z,18.23
2016-12-06T05:00:45.399Z,18.25
2016-12-06T05:01:45.129Z,18.25
2016-12-06T05:02:45.120Z,18.25
2016-12-06T05:03:45.095Z,18.35
2016-12-06T05:04:45.078Z,18.28
2016-12-06T05:05:44.751Z,18.38
2016-12-06T05:06:45.043Z,18.54
2016-12-06T05:07:44.706Z,18.56
2016-12-06T05:08:45.044Z,18.5
2016-12-06T05:09:44.991Z,18.62
2016-12-06T05:10:45.182Z,18.78
2016-12-06T05:11:44.956Z,18.91
2016-12-06T05:12:44.946Z,18.94
2016-12-06T05:13:44.915Z,19.15
2016-12-06T05:14:44.910Z,19.21
2016-12-06T05:15:44.889Z,19.21
2016-12-06T05:16:44.549Z,19.24
2016-12-06T05:17:44.850Z,19.43
2016-12-06T05:18:44.831Z,19.45
2016-12-06T05:19:44.818Z,19.58
2016-12-06T05:20:44.801Z,19.64
2016-12-06T05:21:44.789Z,19.71
2016-12-06T05:22:44.766Z,19.65
2016-12-06T05:23:44.437Z,19.71
2016-12-06T05:24:44.730Z,19.72
2016-12-06T05:25:44.722Z,19.83
2016-12-06T05:26:44.379Z,19.78
2016-12-06T05:27:44.676Z,19.8
2016-12-06T05:28:44.665Z,19.83
2016-12-06T05:29:44.330Z,19.87
2016-12-06T05:30:44.311Z,19.85
2016-12-06T05:31:44.293Z,19.85
2016-12-06T05:32:43.973Z,19.83
2016-12-06T05:33:44.261Z,19.86
2016-12-06T05:34:44.885Z,19.87
2016-12-06T05:35:44.250Z,19.87
2016-12-06T05:36:44.561Z,19.82
2016-12-06T05:37:44.190Z,19.85
2016-12-06T05:38:44.491Z,19.8
2016-12-06T05:39:44.153Z,19.86
2016-12-06T05:40:44.454Z,19.87
2016-12-06T05:41:44.443Z,19.85
2016-12-06T05:42:44.622Z,19.87
2016-12-06T05:43:44.403Z,19.89
2016-12-06T05:44:44.381Z,19.82
2016-12-06T05:45:44.367Z,19.79
2016-12-06T05:46:44.585Z,19.8
2016-12-06T05:47:44.338Z,19.76
2016-12-06T05:48:44.343Z,19.79
2016-12-06T05:49:43.667Z,19.79
2016-12-06T05:50:43.974Z,19.83
2016-12-06T05:51:44.267Z,19.79
2016-12-06T05:52:44.482Z,19.82
2016-12-06T05:53:43.922Z,19.85
2016-12-06T05:54:44.219Z,19.83
2016-12-06T05:55:44.198Z,19.76
2016-12-06T05:56:43.867Z,19.8
2016-12-06T05:57:43.888Z,19.79
2016-12-06T05:58:44.149Z,19.86
2016-12-06T05:59:44.143Z,19.82
2016-12-06T06:00:44.116Z,19.89
2016-12-06T06:01:44.103Z,19.8
2016-12-06T06:02:44.079Z,19.65
2016-12-06T06:03:44.061Z,19.58
2016-12-06T06:04:44.044Z,19.52
2016-12-06T06:05:44.027Z,19.52
2016-12-06T06:06:44.013Z,19.43
2016-12-06T06:07:43.683Z,19.25
2016-12-06T06:08:44.014Z,19.27
2016-12-06T06:09:43.963Z,19.16
2016-12-06T06:10:43.630Z,19.24
2016-12-06T06:11:43.930Z,19.21
2016-12-06T06:12:43.913Z,19.15
2016-12-06T06:13:43.584Z,19.2
2016-12-06T06:14:43.875Z,19.28
2016-12-06T06:15:43.860Z,19.3
2016-12-06T06:16:43.531Z,19.31
2016-12-06T06:17:44.078Z,19.43
2016-12-06T06:18:43.811Z,19.61
2016-12-06T06:19:43.795Z,19.61
2016-12-06T06:20:43.780Z,19.79
2016-12-06T06:21:43.760Z,19.61
2016-12-06T06:22:43.803Z,19.72
2016-12-06T06:23:43.409Z,19.83
2016-12-06T06:24:43.717Z,19.87
2016-12-06T06:25:43.691Z,19.89
2016-12-06T06:26:43.682Z,19.86
2016-12-06T06:27:43.901Z,19.83
2016-12-06T06:28:43.643Z,19.98
2016-12-06T06:29:43.309Z,19.95
2016-12-06T06:30:43.637Z,19.92
2016-12-06T06:31:43.595Z,19.94
2016-12-06T06:32:43.573Z,19.94
2016-12-06T06:33:43.557Z,19.97
2016-12-06T06:34:43.542Z,19.98
2016-12-06T06:35:43.526Z,19.97
2016-12-06T06:36:43.508Z,20.07
2016-12-06T06:37:43.175Z,20.1
2016-12-06T06:38:43.166Z,20.13
2016-12-06T06:39:43.142Z,20.07
2016-12-06T06:40:43.444Z,20.04
2016-12-06T06:41:43.424Z,20.08
2016-12-06T06:42:43.410Z,20.12
2016-12-06T06:43:43.389Z,20.19
2016-12-06T06:44:42.739Z,20.19
2016-12-06T06:45:43.358Z,20.16
2016-12-06T06:46:43.339Z,20.16
2016-12-06T06:47:43.332Z,20.13
2016-12-06T06:48:43.311Z,20.25
2016-12-06T06:49:42.657Z,20.22
2016-12-06T06:50:43.274Z,20.17
2016-12-06T06:51:43.257Z,20.19
2016-12-06T06:52:43.240Z,20.17
2016-12-06T06:53:43.225Z,20.2
2016-12-06T06:54:42.891Z,20.2
2016-12-06T06:55:42.874Z,20.2
2016-12-06T06:56:43.179Z,20.16
2016-12-06T06:57:43.155Z,20.2
2016-12-06T06:58:42.840Z,20.19
2016-12-06T06:59:43.125Z,20.22
2016-12-06T07:00:43.106Z,20.25
2016-12-06T07:01:43.081Z,20.19
2016-12-06T07:02:43.076Z,20.19
2016-12-06T07:03:43.058Z,20.23
2016-12-06T07:04:43.047Z,20.16
2016-12-06T07:05:42.711Z,20.25
2016-12-06T07:06:43.056Z,20.19
2016-12-06T07:07:42.995Z,20.17
2016-12-06T07:08:42.974Z,20.2
2016-12-06T07:09:42.953Z,20.26
2016-12-06T07:10:42.947Z,20.22
2016-12-06T07:11:42.608Z,20.22
2016-12-06T07:12:42.909Z,20.2
2016-12-06T07:13:42.897Z,20.19
2016-12-06T07:14:42.881Z,20.2
2016-12-06T07:15:42.539Z,20.16
2016-12-06T07:16:42.892Z,20.19
2016-12-06T07:17:42.823Z,20.33
2016-12-06T07:18:42.812Z,20.19
2016-12-06T07:19:42.475Z,20.2
2016-12-06T07:20:42.777Z,20.3
2016-12-06T07:21:42.786Z,20.2
2016-12-06T07:22:42.740Z,20.22
2016-12-06T07:23:42.728Z,20.33
2016-12-06T07:24:42.718Z,20.31
2016-12-06T07:25:42.693Z,20.31
2016-12-06T07:26:42.678Z,20.27
2016-12-06T07:27:42.661Z,20.34
2016-12-06T07:28:42.646Z,20.31
2016-12-06T07:29:42.624Z,20.27
2016-12-06T07:30:42.663Z,20.33
2016-12-06T07:31:42.278Z,20.31
2016-12-06T07:32:42.577Z,20.33
2016-12-06T07:33:42.243Z,20.35
2016-12-06T07:34:42.230Z,20.31
2016-12-06T07:35:42.529Z,20.31
2016-12-06T07:36:42.517Z,20.33
2016-12-06T07:37:42.187Z,20.35
2016-12-06T07:38:42.484Z,20.35
2016-12-06T07:39:42.466Z,20.33
2016-12-06T07:40:42.446Z,20.42
2016-12-06T07:41:42.112Z,20.35
2016-12-06T07:42:42.415Z,20.35
2016-12-06T07:43:42.082Z,20.46
2016-12-06T07:44:42.422Z,20.34
2016-12-06T07:45:42.375Z,20.38
2016-12-06T07:46:42.351Z,20.4
2016-12-06T07:47:42.330Z,20.33
2016-12-06T07:48:42.519Z,20.44
2016-12-06T07:49:42.300Z,20.34
2016-12-06T07:50:41.968Z,20.35
2016-12-06T07:51:42.268Z,20.31
2016-12-06T07:52:42.250Z,20.35
2016-12-06T07:53:42.233Z,20.4
2016-12-06T07:54:41.906Z,20.34
2016-12-06T07:55:42.201Z,20.3
2016-12-06T07:56:42.405Z,20.41
2016-12-06T07:57:42.170Z,20.42
2016-12-06T07:58:42.149Z,20.44
2016-12-06T07:59:42.138Z,20.46
2016-12-06T08:00:42.112Z,20.35
2016-12-06T08:01:42.103Z,20.44
2016-12-06T08:02:42.089Z,20.41
2016-12-06T08:03:42.075Z,20.5
2016-12-06T08:04:42.056Z,20.44
2016-12-06T08:05:42.280Z,20.44
2016-12-06T08:06:42.251Z,20.46
2016-12-06T08:07:41.688Z,20.5
2016-12-06T08:08:41.667Z,20.51
2016-12-06T08:09:41.656Z,20.5
2016-12-06T08:10:41.958Z,20.53
2016-12-06T08:11:41.948Z,20.5
2016-12-06T08:12:41.922Z,20.5
2016-12-06T08:13:41.909Z,20.48
2016-12-06T08:14:41.948Z,20.46
2016-12-06T08:15:41.558Z,20.48
2016-12-06T08:16:41.859Z,20.53
2016-12-06T08:17:41.844Z,20.5
2016-12-06T08:18:41.519Z,20.53
2016-12-06T08:19:41.811Z,20.56
2016-12-06T08:20:41.486Z,20.51
2016-12-06T08:21:41.779Z,20.53
2016-12-06T08:22:41.444Z,20.53
2016-12-06T08:23:41.744Z,20.51
2016-12-06T08:24:41.737Z,20.5
2016-12-06T08:25:41.078Z,20.6
2016-12-06T08:26:41.705Z,20.5
2016-12-06T08:27:41.365Z,20.46
2016-12-06T08:28:41.352Z,20.51
2016-12-06T08:29:41.656Z,20.48
2016-12-06T08:30:41.640Z,20.57
2016-12-06T08:31:41.311Z,20.48
2016-12-06T08:32:41.602Z,20.57
2016-12-06T08:33:41.590Z,20.5
2016-12-06T08:34:41.567Z,20.6
2016-12-06T08:35:41.600Z,20.61
2016-12-06T08:36:41.532Z,20.63
2016-12-06T08:37:41.202Z,20.6
2016-12-06T08:38:41.514Z,20.63
2016-12-06T08:39:41.485Z,20.58
2016-12-06T08:40:41.470Z,20.57
2016-12-06T08:41:41.451Z,20.57
2016-12-06T08:42:41.441Z,20.61
2016-12-06T08:43:41.108Z,20.61
2016-12-06T08:44:41.409Z,20.63
2016-12-06T08:45:41.390Z,20.57
2016-12-06T08:46:41.063Z,20.54
2016-12-06T08:47:41.360Z,20.6
2016-12-06T08:48:41.343Z,20.53
2016-12-06T08:49:41.323Z,20.58
2016-12-06T08:50:41.253Z,20.58
2016-12-06T08:51:41.293Z,20.51
2016-12-06T08:52:41.276Z,20.5
2016-12-06T08:53:41.265Z,20.51
2016-12-06T08:54:41.243Z,20.48
2016-12-06T08:55:40.912Z,20.58
2016-12-06T08:56:41.212Z,20.57
2016-12-06T08:57:41.198Z,20.53
2016-12-06T08:58:41.178Z,20.58
2016-12-06T08:59:40.847Z,20.5
2016-12-06T09:00:41.146Z,20.5
2016-12-06T09:01:40.815Z,20.5
2016-12-06T09:02:41.112Z,20.58
2016-12-06T09:03:41.094Z,20.63
2016-12-06T09:04:41.091Z,20.61
2016-12-06T09:05:41.064Z,20.6
2016-12-06T09:06:41.052Z,20.68
2016-12-06T09:07:41.031Z,20.61
2016-12-06T09:08:41.036Z,20.57
2016-12-06T09:09:41.039Z,20.68
2016-12-06T09:10:40.990Z,20.61
2016-12-06T09:11:40.966Z,20.61
2016-12-06T09:12:40.665Z,20.63
2016-12-06T09:13:40.622Z,20.68
2016-12-06T09:14:40.923Z,20.69
2016-12-06T09:15:40.905Z,20.63
2016-12-06T09:16:40.895Z,20.71
2016-12-06T09:17:40.873Z,20.63
2016-12-06T09:18:40.856Z,20.72
2016-12-06T09:19:40.854Z,20.68
2016-12-06T09:20:40.822Z,20.63
2016-12-06T09:21:40.809Z,20.69
2016-12-06T09:22:40.471Z,20.68
2016-12-06T09:23:41.000Z,20.72
2016-12-06T09:24:40.444Z,20.64
2016-12-06T09:25:40.793Z,20.66
2016-12-06T09:26:40.726Z,20.63
2016-12-06T09:27:40.425Z,20.79
2016-12-06T09:28:40.694Z,20.73
2016-12-06T09:29:40.676Z,20.76
2016-12-06T09:30:40.665Z,20.75
2016-12-06T09:31:40.330Z,20.66
2016-12-06T09:32:40.629Z,20.61
2016-12-06T09:33:40.302Z,20.66
2016-12-06T09:34:40.596Z,20.63
2016-12-06T09:35:40.581Z,20.64
2016-12-06T09:36:40.566Z,20.68
2016-12-06T09:37:40.549Z,20.64
2016-12-06T09:38:40.537Z,20.63
2016-12-06T09:39:40.520Z,20.63
2016-12-06T09:40:40.183Z,20.75
2016-12-06T09:41:40.170Z,20.72
2016-12-06T09:42:40.467Z,20.73
2016-12-06T09:43:40.451Z,20.75
2016-12-06T09:44:40.440Z,20.66
2016-12-06T09:45:40.423Z,20.75
2016-12-06T09:46:40.417Z,20.72
2016-12-06T09:47:40.393Z,20.72
2016-12-06T09:48:40.377Z,20.71
2016-12-06T09:49:40.354Z,20.75
2016-12-06T09:50:40.339Z,20.73
2016-12-06T09:51:40.320Z,20.73
2016-12-06T09:52:39.988Z,20.78
2016-12-06T09:53:40.296Z,20.72
2016-12-06T09:54:40.276Z,20.75
2016-12-06T09:55:40.287Z,20.76
2016-12-06T09:56:40.250Z,20.76
2016-12-06T09:57:40.466Z,20.73
2016-12-06T09:58:39.895Z,20.79
2016-12-06T09:59:39.564Z,20.71
2016-12-06T10:00:40.179Z,20.78
2016-12-06T10:01:39.852Z,20.78
2016-12-06T10:02:40.146Z,20.75
2016-12-06T10:03:40.133Z,20.72
2016-12-06T10:04:40.122Z,20.75
2016-12-06T10:05:40.106Z,20.75
2016-12-06T10:06:39.762Z,20.75
2016-12-06T10:07:40.063Z,20.76
2016-12-06T10:08:39.427Z,20.79
2016-12-06T10:09:40.036Z,20.75
2016-12-06T10:10:40.019Z,20.79
2016-12-06T10:11:39.690Z,20.78
2016-12-06T10:12:39.722Z,20.73
2016-12-06T10:13:39.971Z,20.73
2016-12-06T10:14:39.955Z,20.76
2016-12-06T10:15:39.619Z,20.73
2016-12-06T10:16:39.916Z,20.79
2016-12-06T10:17:39.912Z,20.73
2016-12-06T10:18:39.890Z,20.78
2016-12-06T10:19:39.888Z,20.72
2016-12-06T10:20:39.543Z,20.76
2016-12-06T10:21:39.844Z,20.73
2016-12-06T10:22:39.853Z,20.75
2016-12-06T10:23:39.495Z,20.71
2016-12-06T10:24:39.796Z,20.71
2016-12-06T10:25:39.807Z,20.63
2016-12-06T10:26:39.760Z,20.63
2016-12-06T10:27:39.747Z,20.73
2016-12-06T10:28:39.737Z,20.75
2016-12-06T10:29:39.394Z,20.78
2016-12-06T10:30:39.377Z,20.73
2016-12-06T10:31:39.682Z,20.75
2016-12-06T10:32:39.663Z,20.75
2016-12-06T10:33:39.647Z,20.71
2016-12-06T10:34:39.322Z,20.83
2016-12-06T10:35:39.619Z,20.88
2016-12-06T10:36:39.597Z,20.87
2016-12-06T10:37:39.588Z,20.85
2016-12-06T10:38:39.585Z,20.88
2016-12-06T10:39:39.546Z,20.81
2016-12-06T10:40:39.225Z,20.9
2016-12-06T10:41:39.519Z,20.76
2016-12-06T10:42:39.187Z,20.94
2016-12-06T10:43:39.494Z,20.83
2016-12-06T10:44:39.467Z,20.87
2016-12-06T10:45:39.471Z,21.01
2016-12-06T10:46:39.437Z,20.94
2016-12-06T10:47:39.424Z,20.94
2016-12-06T10:48:39.411Z,20.9
2016-12-06T10:49:39.078Z,20.93
2016-12-06T10:50:39.381Z,20.82
2016-12-06T10:51:39.359Z,20.87
2016-12-06T10:52:39.345Z,20.87
2016-12-06T10:53:39.325Z,20.87
2016-12-06T10:54:39.316Z,20.87
2016-12-06T10:55:39.293Z,20.9
2016-12-06T10:56:38.967Z,20.9
2016-12-06T10:57:39.268Z,20.88
2016-12-06T10:58:39.253Z,20.88
2016-12-06T10:59:39.235Z,20.85
2016-12-06T11:00:39.217Z,20.85
2016-12-06T11:01:39.201Z,20.9
2016-12-06T11:02:38.862Z,20.82
2016-12-06T11:03:39.170Z,20.87
2016-12-06T11:04:38.838Z,20.94
2016-12-06T11:05:39.139Z,20.83
2016-12-06T11:06:39.119Z,20.9
2016-12-06T11:07:39.114Z,20.9
2016-12-06T11:08:39.089Z,20.9
2016-12-06T11:09:39.077Z,20.9
2016-12-06T11:10:39.071Z,20.88
2016-12-06T11:11:39.041Z,20.91
2016-12-06T11:12:39.024Z,20.9
2016-12-06T11:13:38.697Z,20.97
2016-12-06T11:14:38.674Z,20.83
2016-12-06T11:15:38.978Z,20.87
2016-12-06T11:16:38.959Z,20.81
2016-12-06T11:17:38.946Z,20.9
2016-12-06T11:18:38.933Z,20.97
2016-12-06T11:19:38.912Z,20.85
2016-12-06T11:20:38.268Z,20.85
2016-12-06T11:21:38.566Z,21
2016-12-06T11:22:38.868Z,20.96
2016-12-06T11:23:38.536Z,20.96
2016-12-06T11:24:38.839Z,21
2016-12-06T11:25:38.188Z,20.93
2016-12-06T11:26:38.511Z,20.97
2016-12-06T11:27:38.788Z,20.96
2016-12-06T11:28:38.779Z,20.82
2016-12-06T11:29:38.443Z,20.96
2016-12-06T11:30:38.746Z,20.91
2016-12-06T11:31:38.407Z,20.9
2016-12-06T11:32:38.395Z,20.97
2016-12-06T11:33:38.375Z,20.91
2016-12-06T11:34:38.366Z,20.87
2016-12-06T11:35:38.662Z,20.85
2016-12-06T11:36:38.653Z,20.87
2016-12-06T11:37:38.319Z,20.82
2016-12-06T11:38:38.617Z,20.94
2016-12-06T11:39:38.599Z,20.91
2016-12-06T11:40:38.580Z,20.83
2016-12-06T11:41:38.568Z,20.88
2016-12-06T11:42:38.546Z,20.85
2016-12-06T11:43:38.533Z,20.93
2016-12-06T11:44:38.525Z,20.98
2016-12-06T11:45:38.184Z,20.96
2016-12-06T11:46:38.168Z,20.98
2016-12-06T11:47:38.479Z,20.96
2016-12-06T11:48:38.467Z,21
2016-12-06T11:49:38.437Z,20.98
2016-12-06T11:50:38.426Z,20.96
2016-12-06T11:51:38.403Z,20.87
2016-12-06T11:52:38.073Z,20.9
2016-12-06T11:53:38.058Z,20.97
2016-12-06T11:54:38.043Z,20.91
2016-12-06T11:55:38.336Z,20.9
2016-12-06T11:56:38.345Z,20.93
2016-12-06T11:57:38.311Z,20.96
2016-12-06T11:58:37.974Z,20.96
2016-12-06T11:59:37.962Z,20.94
2016-12-06T12:00:37.950Z,20.93
2016-12-06T12:01:38.250Z,20.88
2016-12-06T12:02:38.231Z,20.96
2016-12-06T12:03:37.894Z,20.96
2016-12-06T12:04:37.890Z,20.9
2016-12-06T12:05:38.082Z,20.93
2016-12-06T12:06:38.166Z,20.96
2016-12-06T12:07:38.155Z,20.96
2016-12-06T12:08:37.821Z,20.87
2016-12-06T12:09:37.491Z,20.93
2016-12-06T12:10:38.097Z,21
2016-12-06T12:11:38.089Z,20.91
2016-12-06T12:12:38.067Z,20.96
2016-12-06T12:13:38.054Z,20.98
2016-12-06T12:14:38.033Z,20.82
2016-12-06T12:15:37.701Z,20.85
2016-12-06T12:16:38.012Z,20.79
2016-12-06T12:17:37.699Z,20.94
2016-12-06T12:18:37.978Z,20.87
2016-12-06T12:19:37.957Z,20.81
2016-12-06T12:20:37.943Z,20.9
2016-12-06T12:21:37.926Z,20.9
2016-12-06T12:22:37.911Z,20.91
2016-12-06T12:23:37.896Z,20.9
2016-12-06T12:24:37.563Z,20.75
2016-12-06T12:25:37.867Z,20.35
2016-12-06T12:26:37.845Z,19.89
2016-12-06T12:27:37.827Z,19.95
2016-12-06T12:28:37.814Z,20.13
2016-12-06T12:29:37.796Z,20.35
2016-12-06T12:30:37.797Z,20.44
2016-12-06T12:31:37.446Z,20.44
2016-12-06T12:32:37.749Z,20.66
2016-12-06T12:33:37.736Z,20.63
2016-12-06T12:34:37.719Z,20.64
2016-12-06T12:35:37.702Z,20.66
2016-12-06T12:36:37.680Z,20.57
2016-12-06T12:37:37.677Z,20.48
2016-12-06T12:38:37.340Z,20.37
2016-12-06T12:39:37.001Z,20.4
2016-12-06T12:40:37.302Z,20.33
2016-12-06T12:41:37.610Z,20.34
2016-12-06T12:42:37.599Z,20.41
2016-12-06T12:43:37.570Z,20.53
2016-12-06T12:44:37.553Z,20.57
2016-12-06T12:45:37.253Z,20.61
2016-12-06T12:46:37.524Z,20.66
2016-12-06T12:47:37.503Z,20.79
2016-12-06T12:48:37.523Z,20.75
2016-12-06T12:49:37.475Z,20.76
2016-12-06T12:50:37.145Z,20.71
2016-12-06T12:51:37.659Z,20.79
2016-12-06T12:52:37.429Z,20.88
2016-12-06T12:53:37.412Z,20.9
2016-12-06T12:54:37.395Z,20.88
2016-12-06T12:55:37.381Z,20.9